Time;durP1;ratioP1;P1;durP2;ratioP2;P2;SDS_P1;SDS_P2;PMS_P1;PMS_P2;Temp;Humidity;BMP_temperature;BMP_pressure;BME280_temperature;BME280_humidity;BME280_pressure;Samples;Min_cycle;Max_cycle;Signal;HPM_P1;HPM_P2
2022/11/09 00:00:42;;;;;;;8.60;1.20;;;;;;;;;;5068072;28;20055;-71
2022/11/09 00:03:09;;;;;;;9.90;1.63;;;;;;;;;;5068870;28;20506;-71
2022/11/09 00:05:36;;;;;;;7.50;1.20;;;;;;;;;;5059451;28;20680;-71
2022/11/09 00:08:06;;;;;;;6.57;1.08;;;;;;;;;;5061739;28;20055;-72
2022/11/09 00:10:34;;;;;;;8.20;1.20;;;;;;;;;;5059525;28;20214;-71
2022/11/09 00:13:01;;;;;;;7.93;1.35;;;;;;;;;;5060088;28;20048;-72
2022/11/09 00:15:29;;;;;;;8.60;1.27;;;;;;;;;;5067567;28;20143;-72
2022/11/09 00:17:56;;;;;;;6.07;0.88;;;;;;;;;;5066982;28;20062;-70
2022/11/09 00:20:23;;;;;;;7.82;1.40;;;;;;;;;;5064237;28;20044;-71
2022/11/09 00:22:50;;;;;;;8.88;1.70;;;;;;;;;;5065159;28;20070;-72
2022/11/09 00:25:18;;;;;;;8.77;1.60;;;;;;;;;;5065696;28;20059;-72
2022/11/09 00:27:46;;;;;;;4.25;0.75;;;;;;;;;;5080258;28;20040;-71
2022/11/09 00:30:14;;;;;;;6.20;0.95;;;;;;;;;;5065591;28;20060;-74
2022/11/09 00:32:41;;;;;;;15.75;1.70;;;;;;;;;;5063340;28;20059;-71
2022/11/09 00:35:09;;;;;;;7.72;1.60;;;;;;;;;;5066434;28;20051;-70
2022/11/09 00:37:36;;;;;;;9.85;2.30;;;;;;;;;;5080887;28;20055;-70
2022/11/09 00:40:03;;;;;;;9.50;1.73;;;;;;;;;;5077220;28;20080;-71
2022/11/09 00:42:30;;;;;;;8.75;1.60;;;;;;;;;;5056194;28;20092;-71
2022/11/09 00:44:59;;;;;;;8.23;1.50;;;;;;;;;;5052965;28;20040;-72
2022/11/09 00:47:26;;;;;;;11.77;1.38;;;;;;;;;;5059066;28;20278;-72
2022/11/09 00:49:54;;;;;;;10.40;1.48;;;;;;;;;;5061749;28;20063;-71
2022/11/09 00:52:21;;;;;;;7.20;1.33;;;;;;;;;;5065552;28;20087;-72
2022/11/09 00:54:48;;;;;;;13.18;1.60;;;;;;;;;;5066522;28;20047;-72
2022/11/09 00:57:15;;;;;;;12.07;1.20;;;;;;;;;;5063217;28;20056;-71
2022/11/09 00:59:43;;;;;;;9.35;1.70;;;;;;;;;;5064709;28;20147;-71
2022/11/09 01:02:11;;;;;;;14.40;1.48;;;;;;;;;;5058952;28;20052;-72
2022/11/09 01:04:39;;;;;;;10.02;1.20;;;;;;;;;;5063359;28;20040;-71
2022/11/09 01:07:07;;;;;;;14.18;1.60;;;;;;;;;;5062640;28;20070;-72
2022/11/09 01:09:34;;;;;;;7.20;1.25;;;;;;;;;;5066111;28;20322;-72
2022/11/09 01:12:01;;;;;;;7.30;1.67;;;;;;;;;;5085027;28;20113;-72
2022/11/09 01:14:29;;;;;;;8.00;1.27;;;;;;;;;;5075616;28;20445;-73
2022/11/09 01:16:56;;;;;;;9.75;1.48;;;;;;;;;;5066381;28;20067;-73
2022/11/09 01:19:24;;;;;;;10.40;2.00;;;;;;;;;;5065314;28;20058;-71
2022/11/09 01:21:52;;;;;;;8.85;1.85;;;;;;;;;;5063847;28;20045;-71
2022/11/09 01:24:19;;;;;;;11.85;1.55;;;;;;;;;;5064371;28;20056;-71
2022/11/09 01:26:46;;;;;;;9.02;2.08;;;;;;;;;;5065341;28;20443;-72
2022/11/09 01:29:13;;;;;;;10.13;1.55;;;;;;;;;;5058295;28;20269;-72
2022/11/09 01:31:40;;;;;;;9.45;1.83;;;;;;;;;;5079083;28;20052;-72
2022/11/09 01:34:08;;;;;;;11.50;1.70;;;;;;;;;;5066718;28;20066;-71
2022/11/09 01:36:36;;;;;;;14.40;2.00;;;;;;;;;;5059388;28;20044;-71
2022/11/09 01:39:06;;;;;;;16.13;2.00;;;;;;;;;;5067467;28;20063;-71
2022/11/09 01:41:33;;;;;;;13.23;1.80;;;;;;;;;;5072865;28;20055;-71
2022/11/09 01:44:07;;;;;;;9.63;2.10;;;;;;;;;;5066743;28;20052;-71
2022/11/09 01:46:36;;;;;;;6.50;1.42;;;;;;;;;;5068547;28;20055;-70
2022/11/09 01:49:07;;;;;;;11.60;2.00;;;;;;;;;;5087239;28;20052;-71
2022/11/09 01:51:36;;;;;;;11.07;2.00;;;;;;;;;;5067058;28;20475;-71
2022/11/09 01:54:06;;;;;;;12.93;2.05;;;;;;;;;;5065711;28;20066;-70
2022/11/09 01:56:34;;;;;;;9.88;1.75;;;;;;;;;;5056276;28;20044;-71
2022/11/09 01:59:02;;;;;;;13.23;1.98;;;;;;;;;;5066235;28;20051;-71
2022/11/09 02:01:30;;;;;;;13.15;2.13;;;;;;;;;;5066850;28;20131;-71
2022/11/09 02:04:00;;;;;;;16.55;2.30;;;;;;;;;;5064516;28;20430;-70
2022/11/09 02:06:29;;;;;;;8.10;1.83;;;;;;;;;;5058869;28;20772;-71
2022/11/09 02:09:00;;;;;;;12.10;1.75;;;;;;;;;;5065887;28;20052;-72
2022/11/09 02:11:29;;;;;;;12.35;1.77;;;;;;;;;;5081521;28;20051;-71
2022/11/09 02:13:57;;;;;;;9.73;2.50;;;;;;;;;;5068159;28;20498;-72
2022/11/09 02:16:25;;;;;;;7.60;1.58;;;;;;;;;;5067049;28;20052;-72
2022/11/09 02:18:54;;;;;;;7.55;1.50;;;;;;;;;;5066494;28;20459;-71
2022/11/09 02:21:24;;;;;;;11.38;1.92;;;;;;;;;;5070222;28;20044;-71
2022/11/09 02:23:51;;;;;;;8.40;1.48;;;;;;;;;;5085645;28;20145;-72
2022/11/09 02:26:20;;;;;;;7.32;1.80;;;;;;;;;;5070341;28;20071;-72
2022/11/09 02:28:48;;;;;;;12.60;2.35;;;;;;;;;;5066408;28;20125;-71
2022/11/09 02:31:16;;;;;;;10.65;2.17;;;;;;;;;;5060657;28;20079;-71
2022/11/09 02:33:45;;;;;;;14.23;2.10;;;;;;;;;;5064735;28;20044;-71
2022/11/09 02:36:12;;;;;;;14.60;2.75;;;;;;;;;;5067915;28;20428;-73
2022/11/09 02:38:41;;;;;;;14.35;2.50;;;;;;;;;;5064981;28;20052;-71
2022/11/09 02:41:08;;;;;;;14.38;2.60;;;;;;;;;;5061480;28;21387;-71
2022/11/09 02:43:36;;;;;;;15.82;2.65;;;;;;;;;;5065132;28;20058;-72
2022/11/09 02:46:03;;;;;;;12.85;2.55;;;;;;;;;;5063524;28;20052;-71
2022/11/09 02:48:30;;;;;;;11.85;2.20;;;;;;;;;;5062168;28;20054;-71
2022/11/09 02:50:57;;;;;;;13.25;2.20;;;;;;;;;;5066733;28;20053;-71
2022/11/09 02:53:25;;;;;;;15.20;2.28;;;;;;;;;;5062916;28;20052;-72
2022/11/09 02:55:53;;;;;;;14.07;2.20;;;;;;;;;;5068642;28;20048;-71
2022/11/09 02:58:20;;;;;;;16.10;2.55;;;;;;;;;;5067230;28;20048;-71
2022/11/09 03:00:48;;;;;;;17.02;2.53;;;;;;;;;;5063627;28;20048;-72
2022/11/09 03:03:15;;;;;;;10.18;2.35;;;;;;;;;;5065353;28;20060;-71
2022/11/09 03:05:42;;;;;;;14.07;2.45;;;;;;;;;;5069561;28;21228;-71
2022/11/09 03:08:10;;;;;;;14.27;1.90;;;;;;;;;;5065881;28;20099;-71
2022/11/09 03:10:37;;;;;;;16.38;2.28;;;;;;;;;;5065458;28;20047;-71
2022/11/09 03:13:06;;;;;;;15.00;3.00;;;;;;;;;;5067105;28;20052;-71
2022/11/09 03:15:34;;;;;;;13.23;2.47;;;;;;;;;;5059904;28;20048;-72
2022/11/09 03:18:01;;;;;;;10.05;2.03;;;;;;;;;;5060714;28;20063;-73
2022/11/09 03:20:28;;;;;;;12.00;1.80;;;;;;;;;;5064242;28;20048;-71
2022/11/09 03:22:57;;;;;;;15.45;2.50;;;;;;;;;;5066115;28;20060;-71
2022/11/09 03:25:25;;;;;;;10.25;2.20;;;;;;;;;;5069410;28;20149;-71
2022/11/09 03:27:57;;;;;;;12.63;1.85;;;;;;;;;;5066773;28;20060;-73
2022/11/09 03:30:25;;;;;;;13.93;2.00;;;;;;;;;;5067445;28;20063;-72
2022/11/09 03:32:57;;;;;;;13.80;2.70;;;;;;;;;;5069063;28;20109;-70
2022/11/09 03:35:25;;;;;;;13.73;2.47;;;;;;;;;;5060900;28;20119;-71
2022/11/09 03:37:52;;;;;;;18.92;2.92;;;;;;;;;;5068215;28;20052;-70
2022/11/09 03:40:19;;;;;;;14.55;2.35;;;;;;;;;;5065698;28;20100;-71
2022/11/09 03:42:47;;;;;;;13.48;2.30;;;;;;;;;;5067249;28;20138;-71
2022/11/09 03:45:14;;;;;;;15.80;2.95;;;;;;;;;;5063756;28;20476;-71
2022/11/09 03:47:43;;;;;;;16.15;2.13;;;;;;;;;;5064218;28;20066;-72
2022/11/09 03:50:11;;;;;;;17.00;2.78;;;;;;;;;;5056554;28;20144;-70
2022/11/09 03:52:38;;;;;;;12.20;2.00;;;;;;;;;;5065455;28;20051;-71
2022/11/09 03:55:07;;;;;;;12.15;2.10;;;;;;;;;;5065417;28;20391;-72
2022/11/09 03:57:34;;;;;;;11.93;2.03;;;;;;;;;;5061801;28;20055;-71
2022/11/09 04:00:01;;;;;;;17.20;2.60;;;;;;;;;;5065411;28;20052;-70
2022/11/09 04:02:28;;;;;;;16.60;1.80;;;;;;;;;;5064709;28;20048;-70
2022/11/09 04:04:57;;;;;;;15.43;2.42;;;;;;;;;;5067840;28;20067;-71
2022/11/09 04:07:24;;;;;;;14.85;2.33;;;;;;;;;;5068224;28;20544;-70
2022/11/09 04:09:52;;;;;;;17.25;2.13;;;;;;;;;;5067831;28;20044;-70
2022/11/09 04:12:19;;;;;;;16.42;2.42;;;;;;;;;;5067714;28;20078;-73
2022/11/09 04:14:46;;;;;;;14.13;2.20;;;;;;;;;;5064473;28;20052;-71
2022/11/09 04:17:13;;;;;;;17.35;2.35;;;;;;;;;;5063863;28;20051;-71
2022/11/09 04:19:40;;;;;;;11.07;1.85;;;;;;;;;;5067431;28;20048;-72
2022/11/09 04:22:09;;;;;;;15.98;2.33;;;;;;;;;;5084403;28;20414;-71
2022/11/09 04:24:36;;;;;;;17.52;2.40;;;;;;;;;;5064360;28;20047;-71
2022/11/09 04:27:03;;;;;;;21.92;2.25;;;;;;;;;;5084353;28;20052;-70
2022/11/09 04:29:31;;;;;;;17.55;2.35;;;;;;;;;;5084648;28;20166;-70
2022/11/09 04:31:58;;;;;;;21.73;2.47;;;;;;;;;;5067904;28;20739;-70
2022/11/09 04:34:25;;;;;;;20.05;2.28;;;;;;;;;;5066934;28;20059;-70
2022/11/09 04:36:52;;;;;;;17.88;2.33;;;;;;;;;;5065798;28;20338;-69
2022/11/09 04:39:21;;;;;;;16.80;2.30;;;;;;;;;;5066240;28;20606;-70
2022/11/09 04:41:48;;;;;;;14.35;1.92;;;;;;;;;;5083030;28;20055;-71
2022/11/09 04:44:15;;;;;;;19.42;2.22;;;;;;;;;;5084632;28;20063;-71
2022/11/09 04:46:43;;;;;;;17.08;2.38;;;;;;;;;;5065004;28;20055;-72
2022/11/09 04:49:10;;;;;;;14.57;2.30;;;;;;;;;;5060332;28;20052;-71
2022/11/09 04:51:37;;;;;;;16.00;2.28;;;;;;;;;;5062595;28;20105;-70
2022/11/09 04:54:04;;;;;;;21.73;2.70;;;;;;;;;;5083704;28;20044;-72
2022/11/09 04:56:33;;;;;;;16.25;2.50;;;;;;;;;;5066523;28;20043;-72
2022/11/09 04:59:00;;;;;;;15.80;2.42;;;;;;;;;;5062981;28;20479;-71
2022/11/09 05:01:27;;;;;;;15.75;2.55;;;;;;;;;;5063067;28;20052;-71
2022/11/09 05:03:55;;;;;;;16.48;2.80;;;;;;;;;;5088203;28;20402;-71
2022/11/09 05:06:34;;;;;;;14.20;2.38;;;;;;;;;;5063855;28;20055;-71
2022/11/09 05:09:02;;;;;;;14.48;2.10;;;;;;;;;;5085872;28;20626;-72
2022/11/09 05:11:30;;;;;;;16.02;2.33;;;;;;;;;;5067578;28;20056;-70
2022/11/09 05:13:59;;;;;;;18.13;2.38;;;;;;;;;;5081747;28;20043;-71
2022/11/09 05:16:26;;;;;;;17.95;2.40;;;;;;;;;;5066593;28;20055;-70
2022/11/09 05:18:55;;;;;;;12.40;2.33;;;;;;;;;;5083270;28;20068;-71
2022/11/09 05:21:22;;;;;;;14.70;2.45;;;;;;;;;;5079657;28;20055;-71
2022/11/09 05:23:58;;;;;;;13.70;2.40;;;;;;;;;;5067995;28;20048;-70
2022/11/09 05:26:25;;;;;;;12.88;2.17;;;;;;;;;;5062834;28;20036;-72
2022/11/09 05:28:53;;;;;;;18.67;2.03;;;;;;;;;;5063384;28;20047;-72
2022/11/09 05:31:21;;;;;;;17.90;3.15;;;;;;;;;;5066474;28;20561;-70
2022/11/09 05:33:50;;;;;;;13.90;2.00;;;;;;;;;;5068221;28;20502;-71
2022/11/09 05:36:17;;;;;;;12.35;2.08;;;;;;;;;;5081548;28;20530;-70
2022/11/09 05:38:44;;;;;;;20.08;2.20;;;;;;;;;;5066573;28;20052;-71
2022/11/09 05:41:12;;;;;;;17.83;2.30;;;;;;;;;;5065262;28;20052;-71
2022/11/09 05:43:39;;;;;;;14.38;2.25;;;;;;;;;;5066133;28;20131;-71
2022/11/09 05:46:06;;;;;;;13.75;2.08;;;;;;;;;;5059859;28;20049;-71
2022/11/09 05:48:35;;;;;;;17.67;2.40;;;;;;;;;;5064042;28;20059;-72
2022/11/09 05:51:03;;;;;;;10.13;2.10;;;;;;;;;;5062265;28;20058;-71
2022/11/09 05:53:30;;;;;;;17.05;2.40;;;;;;;;;;5082613;28;20124;-71
2022/11/09 05:55:57;;;;;;;13.77;2.85;;;;;;;;;;5062928;28;20048;-71
2022/11/09 05:58:24;;;;;;;15.65;2.55;;;;;;;;;;5057867;28;20041;-71
2022/11/09 06:00:52;;;;;;;14.25;2.53;;;;;;;;;;5062819;28;20056;-71
2022/11/09 06:03:19;;;;;;;18.13;2.22;;;;;;;;;;5058841;28;20190;-71
2022/11/09 06:05:47;;;;;;;16.23;2.30;;;;;;;;;;5059431;28;20052;-71
2022/11/09 06:08:15;;;;;;;10.23;1.98;;;;;;;;;;5053698;28;20048;-71
2022/11/09 06:10:43;;;;;;;16.65;2.42;;;;;;;;;;5060354;28;20052;-71
2022/11/09 06:13:10;;;;;;;21.75;3.22;;;;;;;;;;5081705;28;20403;-73
2022/11/09 06:15:38;;;;;;;19.95;2.85;;;;;;;;;;5064608;28;20051;-70
2022/11/09 06:18:05;;;;;;;11.85;2.22;;;;;;;;;;5061882;28;20067;-70
2022/11/09 06:20:36;;;;;;;13.02;2.70;;;;;;;;;;5072031;28;20051;-71
2022/11/09 06:23:04;;;;;;;16.08;2.95;;;;;;;;;;5068842;28;20044;-73
2022/11/09 06:25:32;;;;;;;13.00;2.30;;;;;;;;;;5063405;28;20453;-70
2022/11/09 06:27:59;;;;;;;11.48;2.20;;;;;;;;;;5072107;28;20052;-73
2022/11/09 06:30:26;;;;;;;12.45;2.15;;;;;;;;;;5065880;28;20156;-72
2022/11/09 06:32:58;;;;;;;10.02;2.03;;;;;;;;;;5065819;28;20058;-70
2022/11/09 06:35:25;;;;;;;11.45;2.17;;;;;;;;;;5056948;28;20056;-70
2022/11/09 06:37:55;;;;;;;15.07;2.17;;;;;;;;;;5063417;28;20139;-71
2022/11/09 06:40:23;;;;;;;11.85;2.10;;;;;;;;;;5058974;28;20066;-73
2022/11/09 06:42:50;;;;;;;13.40;1.98;;;;;;;;;;5064026;28;20585;-71
2022/11/09 06:45:18;;;;;;;13.23;2.15;;;;;;;;;;5071173;28;20156;-72
2022/11/09 06:47:45;;;;;;;9.93;2.08;;;;;;;;;;5068446;28;20063;-72
2022/11/09 06:50:12;;;;;;;12.07;2.83;;;;;;;;;;5067530;28;20056;-71
2022/11/09 06:52:39;;;;;;;11.40;2.30;;;;;;;;;;5066015;28;20056;-71
2022/11/09 06:55:08;;;;;;;11.10;1.90;;;;;;;;;;5071321;28;20812;-71
2022/11/09 06:57:36;;;;;;;16.80;3.10;;;;;;;;;;5063273;28;20077;-71
2022/11/09 07:00:05;;;;;;;12.63;2.10;;;;;;;;;;5081857;28;20048;-71
2022/11/09 07:02:32;;;;;;;14.35;2.00;;;;;;;;;;5060143;28;20048;-70
2022/11/09 07:04:59;;;;;;;16.15;2.10;;;;;;;;;;5065888;28;20075;-71
2022/11/09 07:07:26;;;;;;;8.63;1.63;;;;;;;;;;5066458;28;20712;-71
2022/11/09 07:09:54;;;;;;;8.20;1.40;;;;;;;;;;5085907;28;20040;-72
2022/11/09 07:12:21;;;;;;;10.52;1.45;;;;;;;;;;5063341;28;20109;-72
2022/11/09 07:14:50;;;;;;;8.30;1.58;;;;;;;;;;5079869;28;20499;-71
2022/11/09 07:17:17;;;;;;;10.25;1.50;;;;;;;;;;5081813;28;20056;-70
2022/11/09 07:19:45;;;;;;;13.52;2.83;;;;;;;;;;5065428;28;20083;-70
2022/11/09 07:22:12;;;;;;;13.60;1.92;;;;;;;;;;5066186;28;20509;-73
2022/11/09 07:24:39;;;;;;;10.88;1.80;;;;;;;;;;5069584;28;20052;-71
2022/11/09 07:27:06;;;;;;;8.98;1.58;;;;;;;;;;5081060;28;20059;-73
2022/11/09 07:29:33;;;;;;;8.88;1.73;;;;;;;;;;5064490;28;20049;-70
2022/11/09 07:32:02;;;;;;;11.20;1.88;;;;;;;;;;5065268;28;20099;-70
2022/11/09 07:34:29;;;;;;;12.20;2.00;;;;;;;;;;5059304;28;20048;-71
2022/11/09 07:36:57;;;;;;;9.77;1.80;;;;;;;;;;5062654;28;20044;-71
2022/11/09 07:39:24;;;;;;;12.93;2.22;;;;;;;;;;5060221;28;20048;-70
2022/11/09 07:41:51;;;;;;;18.67;2.47;;;;;;;;;;5066521;28;20048;-71
2022/11/09 07:44:18;;;;;;;16.95;2.30;;;;;;;;;;5062568;28;20066;-71
2022/11/09 07:46:47;;;;;;;13.30;2.15;;;;;;;;;;5058318;28;20044;-71
2022/11/09 07:49:16;;;;;;;13.48;2.17;;;;;;;;;;5080775;28;20048;-70
2022/11/09 07:51:43;;;;;;;11.80;2.38;;;;;;;;;;5059897;28;20044;-70
2022/11/09 07:54:11;;;;;;;10.13;2.35;;;;;;;;;;5061415;28;20044;-71
2022/11/09 07:56:38;;;;;;;12.68;2.58;;;;;;;;;;5060351;28;20505;-72
2022/11/09 07:59:06;;;;;;;16.67;2.38;;;;;;;;;;5063795;28;20078;-71
2022/11/09 08:01:33;;;;;;;12.45;2.03;;;;;;;;;;5064890;28;20052;-71
2022/11/09 08:04:01;;;;;;;11.68;2.05;;;;;;;;;;5068420;28;20047;-71
2022/11/09 08:06:29;;;;;;;9.60;2.20;;;;;;;;;;5066996;28;20112;-70
2022/11/09 08:08:57;;;;;;;13.77;2.20;;;;;;;;;;5067360;28;20048;-73
2022/11/09 08:11:25;;;;;;;19.00;2.88;;;;;;;;;;5069424;28;20040;-72
2022/11/09 08:13:52;;;;;;;11.05;2.22;;;;;;;;;;5068225;28;20051;-70
2022/11/09 08:16:19;;;;;;;18.08;2.65;;;;;;;;;;5055080;28;20059;-70
2022/11/09 08:18:47;;;;;;;15.30;2.35;;;;;;;;;;5062132;28;20040;-71
2022/11/09 08:21:14;;;;;;;19.23;2.65;;;;;;;;;;5063931;28;20064;-71
2022/11/09 08:23:43;;;;;;;16.48;2.38;;;;;;;;;;5063234;28;20056;-70
2022/11/09 08:26:11;;;;;;;13.15;2.22;;;;;;;;;;5068156;28;20059;-70
2022/11/09 08:28:38;;;;;;;17.77;2.45;;;;;;;;;;5063782;28;20415;-71
2022/11/09 08:31:06;;;;;;;18.45;2.72;;;;;;;;;;5063636;28;20097;-72
2022/11/09 08:33:35;;;;;;;29.33;4.57;;;;;;;;;;5062947;28;20049;-71
2022/11/09 08:36:08;;;;;;;21.50;2.78;;;;;;;;;;5064288;28;20091;-71
2022/11/09 08:38:36;;;;;;;14.60;2.20;;;;;;;;;;5063665;28;20507;-71
2022/11/09 08:41:04;;;;;;;20.02;2.22;;;;;;;;;;5062064;28;20056;-71
2022/11/09 08:43:32;;;;;;;11.02;2.30;;;;;;;;;;5063136;28;20053;-70
2022/11/09 08:45:59;;;;;;;21.48;3.25;;;;;;;;;;5082255;28;20052;-71
2022/11/09 08:48:26;;;;;;;9.75;2.40;;;;;;;;;;5063668;28;20109;-70
2022/11/09 08:50:54;;;;;;;13.68;1.90;;;;;;;;;;5066229;28;20055;-71
2022/11/09 08:53:22;;;;;;;16.55;2.20;;;;;;;;;;5060494;28;20063;-72
2022/11/09 08:55:49;;;;;;;19.23;2.22;;;;;;;;;;5059874;28;20149;-73
2022/11/09 08:58:18;;;;;;;17.02;2.13;;;;;;;;;;5062075;28;20749;-71
2022/11/09 09:00:45;;;;;;;14.95;2.70;;;;;;;;;;5064057;28;20537;-71
2022/11/09 09:03:13;;;;;;;21.75;2.22;;;;;;;;;;5063264;28;20053;-72
2022/11/09 09:05:40;;;;;;;12.70;2.10;;;;;;;;;;5063830;28;20055;-71
2022/11/09 09:08:10;;;;;;;14.77;2.30;;;;;;;;;;5061386;28;20174;-73
2022/11/09 09:10:37;;;;;;;13.88;2.40;;;;;;;;;;5080747;28;20887;-70
2022/11/09 09:13:05;;;;;;;14.50;2.75;;;;;;;;;;5064524;28;20056;-70
2022/11/09 09:15:33;;;;;;;16.90;2.65;;;;;;;;;;5066972;28;20474;-71
2022/11/09 09:18:01;;;;;;;16.05;2.97;;;;;;;;;;5061972;28;20124;-71
2022/11/09 09:20:29;;;;;;;16.60;2.83;;;;;;;;;;5065255;28;20086;-71
2022/11/09 09:22:58;;;;;;;12.70;2.50;;;;;;;;;;5061912;28;20059;-71
2022/11/09 09:25:25;;;;;;;16.55;2.90;;;;;;;;;;5066968;28;20105;-71
2022/11/09 09:27:53;;;;;;;16.13;3.00;;;;;;;;;;5061081;28;20081;-71
2022/11/09 09:30:21;;;;;;;11.38;2.15;;;;;;;;;;5062710;28;20457;-69
2022/11/09 09:32:49;;;;;;;16.70;2.22;;;;;;;;;;5066320;28;20062;-71
2022/11/09 09:35:16;;;;;;;13.27;2.00;;;;;;;;;;5062721;28;20052;-71
2022/11/09 09:37:44;;;;;;;15.60;2.55;;;;;;;;;;5060072;28;20040;-71
2022/11/09 09:40:21;;;;;;;12.32;2.20;;;;;;;;;;5063972;28;20055;-71
2022/11/09 09:42:48;;;;;;;12.32;2.20;;;;;;;;;;5061968;28;20492;-71
2022/11/09 09:45:20;;;;;;;14.05;2.17;;;;;;;;;;5056977;28;20048;-75
2022/11/09 09:47:52;;;;;;;15.15;2.20;;;;;;;;;;5063710;28;20147;-71
2022/11/09 09:50:22;;;;;;;16.52;2.40;;;;;;;;;;5067246;28;20052;-72
2022/11/09 09:52:52;;;;;;;16.13;2.53;;;;;;;;;;5066224;28;20131;-72
2022/11/09 09:55:25;;;;;;;16.92;2.28;;;;;;;;;;5061534;28;20059;-71
2022/11/09 09:57:54;;;;;;;16.10;2.45;;;;;;;;;;5080678;28;20043;-72
2022/11/09 10:00:22;;;;;;;18.05;2.53;;;;;;;;;;5066003;28;20054;-71
2022/11/09 10:02:50;;;;;;;10.88;2.13;;;;;;;;;;5067784;28;20048;-72
2022/11/09 10:05:18;;;;;;;18.00;2.95;;;;;;;;;;5087145;28;20056;-71
2022/11/09 10:07:52;;;;;;;13.73;2.47;;;;;;;;;;5066829;28;21352;-74
2022/11/09 10:10:43;;;;;;;13.27;2.10;;;;;;;;;;5067764;28;20151;-73
2022/11/09 10:13:34;;;;;;;14.10;2.60;;;;;;;;;;5071571;28;20047;-71
2022/11/09 10:16:06;;;;;;;14.45;2.20;;;;;;;;;;4992054;28;20178;-71
2022/11/09 10:18:40;;;;;;;12.95;2.35;;;;;;;;;;5064118;28;20055;-72
2022/11/09 10:21:22;;;;;;;16.80;2.80;;;;;;;;;;5070200;28;20067;-71
2022/11/09 10:23:58;;;;;;;14.07;3.13;;;;;;;;;;5084392;28;20051;-72
2022/11/09 10:26:30;;;;;;;18.30;2.67;;;;;;;;;;5064323;28;20048;-72
2022/11/09 10:29:01;;;;;;;13.52;2.47;;;;;;;;;;5062245;28;20052;-71
2022/11/09 10:31:31;;;;;;;13.50;3.10;;;;;;;;;;5064542;28;20052;-72
2022/11/09 10:34:00;;;;;;;11.52;2.47;;;;;;;;;;5064214;28;20060;-73
2022/11/09 10:36:29;;;;;;;19.00;2.38;;;;;;;;;;5064333;28;20048;-71
2022/11/09 10:39:00;;;;;;;12.77;3.47;;;;;;;;;;5066365;28;20138;-75
2022/11/09 10:41:30;;;;;;;10.15;2.85;;;;;;;;;;5067570;28;20878;-71
2022/11/09 10:43:57;;;;;;;15.48;2.80;;;;;;;;;;5069820;28;20396;-72
2022/11/09 10:46:25;;;;;;;14.60;2.95;;;;;;;;;;5067862;28;20075;-72
2022/11/09 10:48:54;;;;;;;9.20;2.40;;;;;;;;;;5066925;28;20052;-72
2022/11/09 10:51:36;;;;;;;10.60;2.40;;;;;;;;;;5081741;28;20052;-71
2022/11/09 10:54:16;;;;;;;11.90;2.65;;;;;;;;;;5062853;28;20052;-72
2022/11/09 10:56:48;;;;;;;15.02;3.05;;;;;;;;;;5062084;28;20056;-71
2022/11/09 10:59:33;;;;;;;17.80;3.58;;;;;;;;;;5066841;28;20071;-71
2022/11/09 11:02:01;;;;;;;14.95;2.78;;;;;;;;;;5067365;28;20411;-73
2022/11/09 11:04:28;;;;;;;20.27;3.78;;;;;;;;;;5063243;28;20478;-72
2022/11/09 11:06:55;;;;;;;15.40;3.08;;;;;;;;;;5066996;28;20044;-72
2022/11/09 11:09:24;;;;;;;18.55;2.78;;;;;;;;;;5067476;28;20135;-71
2022/11/09 11:12:11;;;;;;;14.25;2.70;;;;;;;;;;5085350;28;20055;-71
2022/11/09 11:14:43;;;;;;;17.13;3.33;;;;;;;;;;5068319;28;20060;-72
2022/11/09 11:17:21;;;;;;;16.15;3.83;;;;;;;;;;5068802;28;20048;-71
2022/11/09 11:19:48;;;;;;;18.42;3.00;;;;;;;;;;5068995;28;20851;-70
2022/11/09 11:22:21;;;;;;;22.20;3.60;;;;;;;;;;5069527;28;20062;-70
2022/11/09 11:24:53;;;;;;;12.93;2.90;;;;;;;;;;5064654;28;20052;-74
2022/11/09 11:27:22;;;;;;;18.65;4.78;;;;;;;;;;5068620;28;20048;-72
2022/11/09 11:29:52;;;;;;;19.13;3.10;;;;;;;;;;5068049;28;20082;-71
2022/11/09 11:32:21;;;;;;;11.23;2.40;;;;;;;;;;5064098;28;20063;-73
2022/11/09 11:34:48;;;;;;;17.30;2.88;;;;;;;;;;5067984;28;20060;-71
2022/11/09 11:37:27;;;;;;;14.25;3.05;;;;;;;;;;5065916;28;20052;-71
2022/11/09 11:40:02;;;;;;;15.05;3.42;;;;;;;;;;5067483;28;20082;-71
2022/11/09 11:42:49;;;;;;;17.60;3.20;;;;;;;;;;5086399;28;20058;-69
2022/11/09 11:45:21;;;;;;;17.13;3.83;;;;;;;;;;5068374;28;20071;-68
2022/11/09 11:47:51;;;;;;;20.40;4.05;;;;;;;;;;5080463;28;20048;-69
2022/11/09 11:50:26;;;;;;;19.05;4.70;;;;;;;;;;5084309;28;20587;-69
2022/11/09 11:53:00;;;;;;;19.73;4.95;;;;;;;;;;5081654;28;20053;-71
2022/11/09 11:55:40;;;;;;;19.95;5.35;;;;;;;;;;5080848;28;20050;-70
2022/11/09 11:58:16;;;;;;;28.92;6.10;;;;;;;;;;5081272;28;20048;-69
2022/11/09 12:00:46;;;;;;;24.15;6.35;;;;;;;;;;5079270;28;20612;-72
2022/11/09 12:03:23;;;;;;;23.40;6.57;;;;;;;;;;5079016;28;20063;-71
2022/11/09 12:06:03;;;;;;;22.00;6.28;;;;;;;;;;5062559;28;20517;-71
2022/11/09 12:08:36;;;;;;;20.88;6.00;;;;;;;;;;5081298;28;20048;-72
2022/11/09 12:11:10;;;;;;;17.30;5.27;;;;;;;;;;5074001;28;20051;-72
2022/11/09 12:13:48;;;;;;;20.98;6.60;;;;;;;;;;5085627;28;20039;-70
2022/11/09 12:16:18;;;;;;;18.48;5.60;;;;;;;;;;5083578;28;20553;-72
2022/11/09 12:19:01;;;;;;;18.85;5.10;;;;;;;;;;5074691;28;20048;-71
2022/11/09 12:21:32;;;;;;;9.45;2.90;;;;;;;;;;5084178;28;20058;-72
2022/11/09 12:24:14;;;;;;;11.07;2.60;;;;;;;;;;5084777;28;20062;-70
2022/11/09 12:26:48;;;;;;;7.35;1.80;;;;;;;;;;5078279;28;20075;-71
2022/11/09 12:29:18;;;;;;;9.15;2.05;;;;;;;;;;5065081;28;20044;-71
2022/11/09 12:31:50;;;;;;;6.75;1.92;;;;;;;;;;5080305;28;20060;-72
2022/11/09 12:34:20;;;;;;;5.20;1.10;;;;;;;;;;5057091;28;20067;-72
2022/11/09 12:36:51;;;;;;;3.10;0.70;;;;;;;;;;5077802;28;20048;-70
2022/11/09 12:39:21;;;;;;;2.83;0.70;;;;;;;;;;5056875;28;20048;-71
2022/11/09 12:41:52;;;;;;;5.80;1.10;;;;;;;;;;5065597;28;20064;-71
2022/11/09 12:44:23;;;;;;;5.68;1.25;;;;;;;;;;5083534;28;20051;-72
2022/11/09 12:46:52;;;;;;;3.25;0.90;;;;;;;;;;5066360;28;20639;-71
2022/11/09 12:49:26;;;;;;;3.13;0.95;;;;;;;;;;5064842;28;20075;-72
2022/11/09 12:51:54;;;;;;;5.10;1.00;;;;;;;;;;5075806;28;20044;-73
2022/11/09 12:54:22;;;;;;;4.53;0.95;;;;;;;;;;5084180;28;20086;-71
2022/11/09 12:56:54;;;;;;;5.35;1.45;;;;;;;;;;5082445;28;20052;-71
2022/11/09 12:59:22;;;;;;;4.43;0.77;;;;;;;;;;5085383;28;20051;-73
2022/11/09 13:01:53;;;;;;;4.28;0.82;;;;;;;;;;5062990;28;20083;-73
2022/11/09 13:04:21;;;;;;;1.73;0.60;;;;;;;;;;5061198;28;20049;-71
2022/11/09 13:07:03;;;;;;;5.38;0.80;;;;;;;;;;5066086;28;20055;-71
2022/11/09 13:09:31;;;;;;;9.25;1.00;;;;;;;;;;5076799;28;20110;-72
2022/11/09 13:11:59;;;;;;;5.55;1.20;;;;;;;;;;5083756;28;20044;-71
2022/11/09 13:14:29;;;;;;;5.30;0.95;;;;;;;;;;5063784;28;20043;-71
2022/11/09 13:16:57;;;;;;;12.15;1.40;;;;;;;;;;5065063;28;20145;-71
2022/11/09 13:19:43;;;;;;;8.88;1.42;;;;;;;;;;5082799;28;20079;-72
2022/11/09 13:22:39;;;;;;;11.25;2.00;;;;;;;;;;5078901;28;20048;-71
2022/11/09 13:25:29;;;;;;;8.63;1.88;;;;;;;;;;5068393;28;20063;-71
2022/11/09 13:27:58;;;;;;;5.88;1.50;;;;;;;;;;5063785;28;20129;-72
2022/11/09 13:30:49;;;;;;;9.05;1.30;;;;;;;;;;5064760;28;20048;-72
2022/11/09 13:33:18;;;;;;;10.23;1.90;;;;;;;;;;5063359;28;20063;-71
2022/11/09 13:36:15;;;;;;;9.63;1.80;;;;;;;;;;5066706;28;20044;-71
2022/11/09 13:38:43;;;;;;;13.82;1.92;;;;;;;;;;5083103;28;20044;-73
2022/11/09 13:41:28;;;;;;;11.13;1.70;;;;;;;;;;5066133;28;20410;-71
2022/11/09 13:44:09;;;;;;;14.55;2.30;;;;;;;;;;5065512;28;20555;-71
2022/11/09 13:46:38;;;;;;;6.50;1.45;;;;;;;;;;5085675;28;20039;-70
2022/11/09 13:49:33;;;;;;;12.82;2.03;;;;;;;;;;5087266;28;20358;-70
2022/11/09 13:52:00;;;;;;;;;;;;;;;;;;5068685;28;20048;-69
2022/11/09 13:54:31;;;;;;;15.35;2.05;;;;;;;;;;5068797;28;19920;-71
2022/11/09 13:56:59;;;;;;;13.13;1.80;;;;;;;;;;5089045;28;20055;-71
2022/11/09 13:59:29;;;;;;;14.80;1.80;;;;;;;;;;5086296;28;20047;-71
2022/11/09 14:01:58;;;;;;;8.68;1.60;;;;;;;;;;5082902;28;20044;-70
2022/11/09 14:04:26;;;;;;;10.13;2.03;;;;;;;;;;5086889;28;20162;-70
2022/11/09 14:07:01;;;;;;;11.32;2.03;;;;;;;;;;5083834;28;20610;-72
2022/11/09 14:09:29;;;;;;;15.48;2.00;;;;;;;;;;5086344;28;20054;-71
2022/11/09 14:12:05;;;;;;;12.85;2.03;;;;;;;;;;5068631;28;20056;-72
2022/11/09 14:14:47;;;;;;;8.23;1.50;;;;;;;;;;5067719;28;20051;-72
2022/11/09 14:17:18;;;;;;;8.38;1.90;;;;;;;;;;5086121;28;20777;-71
2022/11/09 14:19:48;;;;;;;10.98;1.58;;;;;;;;;;5070103;28;20039;-70
2022/11/09 14:22:17;;;;;;;11.93;2.30;;;;;;;;;;5072469;28;20060;-71
2022/11/09 14:24:44;;;;;;;9.35;1.63;;;;;;;;;;5068775;28;20398;-70
2022/11/09 14:27:13;;;;;;;10.60;1.63;;;;;;;;;;5087991;28;20048;-71
2022/11/09 14:29:49;;;;;;;7.65;1.35;;;;;;;;;;5089723;28;20047;-70
2022/11/09 14:32:22;;;;;;;8.20;1.42;;;;;;;;;;5089549;28;20052;-70
2022/11/09 14:34:50;;;;;;;9.68;1.35;;;;;;;;;;5067829;28;20129;-70
2022/11/09 14:37:17;;;;;;;12.05;1.40;;;;;;;;;;5082855;28;20052;-71
2022/11/09 14:39:48;;;;;;;6.82;1.48;;;;;;;;;;5086424;28;20048;-70
2022/11/09 14:42:18;;;;;;;9.55;1.20;;;;;;;;;;5068503;28;20059;-70
2022/11/09 14:44:46;;;;;;;11.88;1.65;;;;;;;;;;5064092;28;20105;-71
2022/11/09 14:47:16;;;;;;;7.93;1.35;;;;;;;;;;5083292;28;20055;-70